createdAt,value
2022-10-14T00:01:16.237Z,101114.06
2022-10-14T00:03:43.265Z,101116.78
2022-10-14T00:06:15.579Z,101112.38
2022-10-14T00:08:43.494Z,101110.72
2022-10-14T00:11:14.702Z,101105.50
2022-10-14T00:13:41.472Z,101105.66
2022-10-14T00:16:16.469Z,101109.31
2022-10-14T00:18:43.070Z,101120.88
2022-10-14T00:21:09.844Z,101118.31
2022-10-14T00:23:36.470Z,101102.53
2022-10-14T00:26:03.175Z,101113.19
2022-10-14T00:28:29.841Z,101097.38
2022-10-14T00:30:58.087Z,101102.78
2022-10-14T00:33:25.718Z,101101.06
2022-10-14T00:36:01.282Z,101095.78
2022-10-14T00:38:28.869Z,101095.91
2022-10-14T00:40:56.355Z,101089.78
2022-10-14T00:43:25.160Z,101095.06
2022-10-14T00:45:51.954Z,101091.47
2022-10-14T00:48:21.149Z,101093.16
2022-10-14T00:50:51.759Z,101079.91
2022-10-14T00:53:18.610Z,101077.31
2022-10-14T00:55:46.047Z,101076.41
2022-10-14T00:58:12.636Z,101082.56
2022-10-14T01:00:39.627Z,101087.84
2022-10-14T01:03:20.671Z,101087.91
2022-10-14T01:06:31.989Z,101088.84
2022-10-14T01:09:09.578Z,101088.84
2022-10-14T01:12:23.493Z,101084.47
2022-10-14T01:15:08.660Z,101080.19
2022-10-14T01:17:49.049Z,101083.81
2022-10-14T01:20:50.496Z,101078.59
2022-10-14T01:23:35.341Z,101081.25
2022-10-14T01:26:23.627Z,101087.47
2022-10-14T01:29:18.117Z,101084.84
2022-10-14T01:31:49.085Z,101088.47
2022-10-14T01:34:24.389Z,101087.66
2022-10-14T01:36:59.382Z,101078.97
2022-10-14T01:39:29.470Z,101081.66
2022-10-14T01:42:05.676Z,101077.38
2022-10-14T01:44:35.025Z,101078.38
2022-10-14T01:47:03.442Z,101074.06
2022-10-14T01:49:39.982Z,101074.16
2022-10-14T01:52:12.691Z,101077.75
2022-10-14T01:54:42.892Z,101074.28
2022-10-14T01:57:14.407Z,101070.72
2022-10-14T01:59:42.602Z,101063.69
2022-10-14T02:02:09.232Z,101061.91
2022-10-14T02:04:35.838Z,101062.81
2022-10-14T02:07:31.016Z,101058.47
2022-10-14T02:10:03.797Z,101059.38
2022-10-14T02:13:00.752Z,101063.75
2022-10-14T02:15:33.070Z,101058.47
2022-10-14T02:17:59.616Z,101059.34
2022-10-14T02:20:32.590Z,101052.31
2022-10-14T02:23:05.004Z,101062.91
2022-10-14T02:25:35.491Z,101066.47
2022-10-14T02:28:07.301Z,101064.81
2022-10-14T02:30:40.922Z,101057.94
2022-10-14T02:33:08.192Z,101061.56
2022-10-14T02:35:36.998Z,101061.53
2022-10-14T02:38:05.366Z,101055.38
2022-10-14T02:40:45.111Z,101053.66
2022-10-14T02:43:12.899Z,101043.97
2022-10-14T02:45:40.962Z,101046.66
2022-10-14T02:48:08.614Z,101047.59
2022-10-14T02:50:35.402Z,101046.78
2022-10-14T02:53:02.039Z,101044.06
2022-10-14T02:55:28.863Z,101034.31
2022-10-14T02:57:55.478Z,101031.66
2022-10-14T03:00:22.139Z,101033.38
2022-10-14T03:02:48.876Z,101035.09
2022-10-14T03:05:15.620Z,101029.84
2022-10-14T03:07:42.214Z,101029.72
2022-10-14T03:10:09.058Z,101023.56
2022-10-14T03:12:36.464Z,101027.06
2022-10-14T03:15:03.685Z,101025.34
2022-10-14T03:17:30.666Z,101024.44
2022-10-14T03:19:58.489Z,101021.72
2022-10-14T03:22:25.795Z,101022.56
2022-10-14T03:24:52.402Z,101030.50
2022-10-14T03:27:19.068Z,101024.34
2022-10-14T03:29:45.710Z,101022.63
2022-10-14T03:32:12.327Z,101021.72
2022-10-14T03:34:38.971Z,101020.84
2022-10-14T03:37:05.600Z,101021.84
2022-10-14T03:39:32.213Z,101020.09
2022-10-14T03:41:58.923Z,101018.38
2022-10-14T03:44:25.548Z,101014.88
2022-10-14T03:46:52.312Z,101012.16
2022-10-14T03:49:18.901Z,101020.06
2022-10-14T03:51:45.570Z,101011.25
2022-10-14T03:54:12.236Z,101014.69
2022-10-14T03:56:38.833Z,101013.00
2022-10-14T03:59:07.847Z,101007.94
2022-10-14T04:01:34.490Z,101002.72
2022-10-14T04:04:01.165Z,101006.34
2022-10-14T04:06:27.750Z,101002.91
2022-10-14T04:08:54.327Z,101008.19
2022-10-14T04:11:20.903Z,101002.03
2022-10-14T04:13:47.490Z,101004.69
2022-10-14T04:16:14.093Z,100994.13
2022-10-14T04:18:40.695Z,100993.19
2022-10-14T04:21:11.276Z,100997.66
2022-10-14T04:23:38.469Z,100988.03
2022-10-14T04:26:07.165Z,100995.13
2022-10-14T04:28:34.700Z,100989.03
2022-10-14T04:31:01.698Z,100996.16
2022-10-14T04:33:28.787Z,101001.50
2022-10-14T04:36:00.054Z,100994.47
2022-10-14T04:38:27.440Z,100995.34
2022-10-14T04:40:54.161Z,100994.50
2022-10-14T04:43:21.157Z,100991.00
2022-10-14T04:45:48.381Z,100985.72
2022-10-14T04:48:15.861Z,100980.59
2022-10-14T04:50:42.452Z,100993.94
2022-10-14T04:53:13.281Z,100987.88
2022-10-14T04:55:40.466Z,100995.81
2022-10-14T04:58:07.127Z,100987.06
2022-10-14T05:00:33.764Z,100985.34
2022-10-14T05:03:00.453Z,100986.19
2022-10-14T05:05:28.514Z,100982.66
2022-10-14T05:07:55.237Z,100979.09
2022-10-14T05:10:22.207Z,100972.94
2022-10-14T05:12:49.497Z,100977.28
2022-10-14T05:15:16.712Z,100970.28
2022-10-14T05:17:44.671Z,100981.78
2022-10-14T05:20:12.258Z,100981.09
2022-10-14T05:22:39.488Z,100975.94
2022-10-14T05:25:06.651Z,100976.00
2022-10-14T05:27:33.286Z,100973.44
2022-10-14T05:29:59.880Z,100972.63
2022-10-14T05:32:26.478Z,100972.63
2022-10-14T05:34:53.070Z,100977.91
2022-10-14T05:37:19.702Z,100977.03
2022-10-14T05:39:46.684Z,100970.84
2022-10-14T05:42:13.279Z,100969.13
2022-10-14T05:44:39.978Z,100967.41
2022-10-14T05:47:15.761Z,100968.25
2022-10-14T05:49:42.867Z,100971.69
2022-10-14T05:52:09.478Z,100963.72
2022-10-14T05:54:36.052Z,100965.44
2022-10-14T05:57:02.636Z,100968.03
2022-10-14T05:59:29.948Z,100957.50
2022-10-14T06:01:57.114Z,100959.25
2022-10-14T06:04:23.807Z,100968.94
2022-10-14T06:06:50.482Z,100968.13
2022-10-14T06:09:17.602Z,100960.28
2022-10-14T06:11:44.436Z,100963.88
2022-10-14T06:14:11.050Z,100961.31
2022-10-14T06:16:37.657Z,100964.78
2022-10-14T06:19:04.249Z,100965.66
2022-10-14T06:21:30.939Z,100970.91
2022-10-14T06:23:57.586Z,100965.56
2022-10-14T06:26:24.224Z,100971.75
2022-10-14T06:28:50.903Z,100969.16
2022-10-14T06:31:17.638Z,100970.97
2022-10-14T06:33:44.551Z,100972.78
2022-10-14T06:36:12.044Z,100959.66
2022-10-14T06:38:38.743Z,100969.41
2022-10-14T06:41:05.352Z,100974.69
2022-10-14T06:43:32.003Z,100972.91
2022-10-14T06:45:58.896Z,100966.75
2022-10-14T06:48:25.663Z,100965.84
2022-10-14T06:50:52.916Z,100970.22
2022-10-14T06:53:19.575Z,100963.16
2022-10-14T06:55:46.493Z,100966.72
2022-10-14T06:58:13.196Z,100958.84
2022-10-14T07:00:42.220Z,100959.69
2022-10-14T07:03:12.237Z,100964.13
2022-10-14T07:05:38.925Z,100963.22
2022-10-14T07:08:06.184Z,100971.00
2022-10-14T07:10:34.023Z,100963.88
2022-10-14T07:13:00.599Z,100966.34
2022-10-14T07:15:28.738Z,100965.31
2022-10-14T07:17:57.821Z,100969.56
2022-10-14T07:20:24.395Z,100966.72
2022-10-14T07:22:55.262Z,100964.84
2022-10-14T07:25:21.850Z,100968.25
2022-10-14T07:27:48.475Z,100968.13
2022-10-14T07:30:17.493Z,100967.09
2022-10-14T07:32:44.391Z,100969.59
2022-10-14T07:35:11.230Z,100965.00
2022-10-14T07:37:38.263Z,100967.41
2022-10-14T07:40:05.227Z,100969.88
2022-10-14T07:42:31.840Z,100957.31
2022-10-14T07:44:58.679Z,100961.47
2022-10-14T07:47:25.342Z,100963.06
2022-10-14T07:49:52.174Z,100957.59
2022-10-14T07:52:19.753Z,100963.53
2022-10-14T07:54:46.563Z,100959.81
2022-10-14T07:57:13.195Z,100957.03
2022-10-14T07:59:39.802Z,100955.03
2022-10-14T08:02:06.438Z,100954.00
2022-10-14T08:04:33.146Z,100957.38
2022-10-14T08:06:59.910Z,100958.13
2022-10-14T08:11:58.013Z,100949.88
2022-10-14T08:14:24.658Z,100956.72
2022-10-14T08:16:51.281Z,100956.50
2022-10-14T08:19:18.130Z,100955.47
2022-10-14T08:21:44.927Z,100959.72
2022-10-14T08:24:14.410Z,100953.28
2022-10-14T08:26:50.078Z,100951.28
2022-10-14T08:29:17.019Z,100946.59
2022-10-14T08:31:43.586Z,100952.53
2022-10-14T08:34:11.367Z,100955.84
2022-10-14T08:36:38.106Z,100953.00
2022-10-14T08:39:05.832Z,100964.19
2022-10-14T08:41:32.414Z,100959.56
2022-10-14T08:44:13.321Z,100961.03
2022-10-14T08:46:49.408Z,100953.69
2022-10-14T08:49:35.928Z,100957.75
2022-10-14T08:52:21.233Z,100961.75
2022-10-14T08:55:02.628Z,100959.66
2022-10-14T08:57:37.819Z,100958.53
2022-10-14T09:00:05.138Z,100967.09
2022-10-14T09:02:50.026Z,100964.22
2022-10-14T09:05:20.484Z,100959.63
2022-10-14T09:07:48.611Z,100957.66
2022-10-14T09:10:23.707Z,100958.44
2022-10-14T09:12:53.317Z,100964.50
2022-10-14T09:15:43.090Z,100952.84
2022-10-14T09:18:28.312Z,100958.00
2022-10-14T09:20:56.542Z,100950.59
2022-10-14T09:23:26.586Z,100951.25
2022-10-14T09:26:14.383Z,100946.53
2022-10-14T09:28:45.242Z,100944.38
2022-10-14T09:31:13.518Z,100950.34
2022-10-14T09:33:43.010Z,100950.00
2022-10-14T09:36:18.790Z,100952.31
2022-10-14T09:38:54.195Z,100939.66
2022-10-14T09:41:25.305Z,100945.34
2022-10-14T09:44:25.580Z,100940.53
2022-10-14T09:47:13.746Z,100945.50
2022-10-14T09:49:46.464Z,100943.34
2022-10-14T09:52:24.744Z,100943.75
2022-10-14T09:54:55.317Z,100936.31
2022-10-14T09:57:22.696Z,100933.28
2022-10-14T09:59:59.179Z,100926.75
2022-10-14T10:02:38.346Z,100927.13
2022-10-14T10:05:22.744Z,100922.13
2022-10-14T10:08:14.918Z,100913.66
2022-10-14T10:10:42.271Z,100917.69
2022-10-14T10:13:32.593Z,100913.84
2022-10-14T10:16:01.443Z,100909.97
2022-10-14T10:18:28.750Z,100914.22
2022-10-14T10:21:17.258Z,100909.69
2022-10-14T10:24:18.244Z,100911.25
2022-10-14T10:26:45.152Z,100914.50
2022-10-14T10:29:32.388Z,100905.19
2022-10-14T10:32:08.783Z,100900.44
2022-10-14T10:34:45.670Z,100908.03
2022-10-14T10:37:54.678Z,100897.00
2022-10-14T10:41:07.747Z,100906.38
2022-10-14T10:43:53.730Z,100896.31
2022-10-14T10:47:05.865Z,100901.22
2022-10-14T10:49:41.712Z,100901.66
2022-10-14T10:52:35.843Z,100902.38
2022-10-14T10:55:20.824Z,100897.81
2022-10-14T10:58:35.603Z,100900.63
2022-10-14T11:01:32.075Z,100906.75
2022-10-14T11:04:23.184Z,100904.06
2022-10-14T11:07:28.105Z,100910.38
2022-10-14T11:10:42.264Z,100911.16
2022-10-14T11:13:23.713Z,100909.13
2022-10-14T11:16:04.268Z,100894.84
2022-10-14T11:18:45.844Z,100900.03
2022-10-14T11:21:29.683Z,100895.41
2022-10-14T11:27:24.828Z,100908.38
2022-10-14T11:30:10.758Z,100900.72
2022-10-14T11:32:55.987Z,100904.66
2022-10-14T11:35:40.957Z,100897.03
2022-10-14T11:38:44.967Z,100901.66
2022-10-14T11:41:39.590Z,100897.41
2022-10-14T11:44:27.343Z,100882.31
2022-10-14T11:46:58.454Z,100875.97
2022-10-14T11:49:33.231Z,100879.50
2022-10-14T11:52:07.819Z,100877.88
2022-10-14T11:54:39.904Z,100881.59
2022-10-14T11:57:18.494Z,100880.75
2022-10-14T11:59:55.365Z,100884.38
2022-10-14T12:02:48.167Z,100873.75
2022-10-14T12:05:38.604Z,100881.84
2022-10-14T12:08:41.846Z,100875.50
2022-10-14T12:11:28.032Z,100872.75
2022-10-14T12:14:02.917Z,100876.28
2022-10-14T12:16:29.947Z,100875.41
2022-10-14T12:18:57.409Z,100870.94
2022-10-14T12:21:38.249Z,100871.09
2022-10-14T12:24:14.491Z,100872.97
2022-10-14T12:27:04.807Z,100866.94
2022-10-14T12:29:35.968Z,100877.75
2022-10-14T12:32:05.745Z,100860.94
2022-10-14T12:34:42.735Z,100869.91
2022-10-14T12:37:27.446Z,100863.69
2022-10-14T12:40:03.566Z,100857.56
2022-10-14T12:42:32.582Z,100857.72
2022-10-14T12:45:15.301Z,100852.38
2022-10-14T12:47:42.549Z,100849.72
2022-10-14T12:50:14.972Z,100849.72
2022-10-14T12:52:46.590Z,100853.28
2022-10-14T12:55:25.423Z,100848.81
2022-10-14T12:58:04.092Z,100854.03
2022-10-14T13:00:40.820Z,100854.91
2022-10-14T13:03:20.732Z,100854.84
2022-10-14T13:05:48.128Z,100859.31
2022-10-14T13:08:20.654Z,100860.19
2022-10-14T13:10:50.529Z,100855.72
2022-10-14T13:13:58.872Z,100859.31
2022-10-14T13:16:25.446Z,100864.72
2022-10-14T13:18:59.190Z,100855.06
2022-10-14T13:21:34.765Z,100860.38
2022-10-14T13:24:05.126Z,100856.00
2022-10-14T13:26:34.369Z,100850.75
2022-10-14T13:29:07.211Z,100847.19
2022-10-14T13:31:43.429Z,100853.41
2022-10-14T13:34:25.378Z,100856.13
2022-10-14T13:37:22.365Z,100839.38
2022-10-14T13:39:49.268Z,100844.63
2022-10-14T13:42:24.619Z,100836.63
2022-10-14T13:44:53.660Z,100839.38
2022-10-14T13:47:22.482Z,100842.94
2022-10-14T13:49:50.851Z,100840.38
2022-10-14T13:52:25.859Z,100832.59
2022-10-14T13:55:12.713Z,100832.81
2022-10-14T13:58:07.506Z,100831.16
2022-10-14T14:00:40.606Z,100839.16
2022-10-14T14:03:25.404Z,100833.75
2022-10-14T14:05:53.395Z,100833.69
2022-10-14T14:08:39.105Z,100835.44
2022-10-14T14:11:17.242Z,100835.34
2022-10-14T14:13:59.008Z,100820.19
2022-10-14T14:16:33.876Z,100827.25
2022-10-14T14:19:08.937Z,100818.53
2022-10-14T14:21:37.302Z,100821.28
2022-10-14T14:24:16.725Z,100816.97
2022-10-14T14:26:44.274Z,100810.91
2022-10-14T14:29:19.481Z,100813.72
2022-10-14T14:32:05.517Z,100814.06
2022-10-14T14:34:36.099Z,100813.38
2022-10-14T14:37:33.942Z,100814.47
2022-10-14T14:40:02.468Z,100811.13
2022-10-14T14:42:36.087Z,100813.91
2022-10-14T14:45:15.463Z,100822.13
2022-10-14T14:47:42.846Z,100820.56
2022-10-14T14:50:31.629Z,100814.50
2022-10-14T14:53:04.054Z,100814.66
2022-10-14T14:55:52.151Z,100808.50
2022-10-14T14:58:18.672Z,100809.59
2022-10-14T15:00:46.341Z,100815.00
2022-10-14T15:03:13.434Z,100808.81
2022-10-14T15:05:40.070Z,100817.81
2022-10-14T15:08:19.160Z,100801.88
2022-10-14T15:10:50.296Z,100815.34
2022-10-14T15:13:32.642Z,100812.13
2022-10-14T15:15:59.910Z,100806.94
2022-10-14T15:18:28.949Z,100807.06
2022-10-14T15:21:04.604Z,100802.66
2022-10-14T15:23:47.891Z,100804.66
2022-10-14T15:26:25.098Z,100806.59
2022-10-14T15:29:15.280Z,100800.59
2022-10-14T15:31:45.142Z,100800.69
2022-10-14T15:34:17.470Z,100795.44
2022-10-14T15:36:44.427Z,100799.03
2022-10-14T15:39:13.987Z,100804.34
2022-10-14T15:41:42.094Z,100802.63
2022-10-14T15:44:08.687Z,100806.22
2022-10-14T15:46:55.361Z,100805.50
2022-10-14T15:49:34.467Z,100800.44
2022-10-14T15:52:01.067Z,100807.63
2022-10-14T15:54:27.937Z,100805.03
2022-10-14T15:56:57.919Z,100792.72
2022-10-14T15:59:24.966Z,100797.31
2022-10-14T16:01:51.962Z,100798.25
2022-10-14T16:04:24.110Z,100796.50
2022-10-14T16:06:54.609Z,100807.28
2022-10-14T16:09:27.556Z,100807.44
2022-10-14T16:11:57.525Z,100801.44
2022-10-14T16:14:25.594Z,100796.31
2022-10-14T16:16:52.289Z,100802.75
2022-10-14T16:19:18.981Z,100793.09
2022-10-14T16:21:45.679Z,100793.31
2022-10-14T16:24:20.497Z,100797.94
2022-10-14T16:26:49.230Z,100798.09
2022-10-14T16:29:18.195Z,100787.66
2022-10-14T16:31:50.050Z,100788.63
2022-10-14T16:34:20.824Z,100800.28
2022-10-14T16:36:49.041Z,100799.47
2022-10-14T16:39:16.754Z,100800.31
2022-10-14T16:41:43.558Z,100803.06
2022-10-14T16:44:28.521Z,100803.06
2022-10-14T16:47:21.324Z,100799.69
2022-10-14T16:49:53.914Z,100796.38
2022-10-14T16:52:21.418Z,100801.72
2022-10-14T16:54:48.454Z,100799.22
2022-10-14T16:57:15.336Z,100798.41
2022-10-14T16:59:42.074Z,100797.47
2022-10-14T17:02:14.894Z,100787.81
2022-10-14T17:04:42.437Z,100784.31
2022-10-14T17:07:10.079Z,100789.69
2022-10-14T17:09:36.968Z,100789.81
2022-10-14T17:12:08.032Z,100792.56
2022-10-14T17:14:37.940Z,100791.66
2022-10-14T17:17:04.955Z,100796.97
2022-10-14T17:19:31.674Z,100792.66
2022-10-14T17:22:04.756Z,100798.88
2022-10-14T17:24:31.428Z,100803.53
2022-10-14T17:26:58.558Z,100806.31
2022-10-14T17:29:32.602Z,100800.19
2022-10-14T17:31:59.243Z,100800.19
2022-10-14T17:34:25.865Z,100797.59
2022-10-14T17:36:53.377Z,100802.09
2022-10-14T17:39:25.864Z,100809.16
2022-10-14T17:41:56.282Z,100802.16
2022-10-14T17:44:23.070Z,100802.22
2022-10-14T17:46:49.719Z,100807.59
2022-10-14T17:49:16.573Z,100801.47
2022-10-14T17:51:46.771Z,100804.19
2022-10-14T17:54:13.483Z,100796.34
2022-10-14T17:56:41.033Z,100806.16
2022-10-14T17:59:10.732Z,100809.00
2022-10-14T18:02:00.848Z,100805.78
2022-10-14T18:04:24.085Z,100798.84
2022-10-14T18:06:50.719Z,100809.59
2022-10-14T18:09:17.345Z,100802.63
2022-10-14T18:14:33.544Z,100802.78
2022-10-14T18:17:00.277Z,100797.53
2022-10-14T18:19:27.230Z,100795.81
2022-10-14T18:21:54.063Z,100795.06
2022-10-14T18:24:20.697Z,100795.09
2022-10-14T18:26:52.710Z,100787.22
2022-10-14T18:29:19.457Z,100795.22
2022-10-14T18:31:46.118Z,100796.34
2022-10-14T18:34:13.055Z,100797.22
2022-10-14T18:36:40.071Z,100801.91
2022-10-14T18:39:10.102Z,100794.88
2022-10-14T18:41:37.351Z,100801.03
2022-10-14T18:44:05.646Z,100797.59
2022-10-14T18:46:34.913Z,100794.09
2022-10-14T18:49:03.169Z,100794.13
2022-10-14T18:51:36.019Z,100790.53
2022-10-14T18:54:11.319Z,100796.75
2022-10-14T18:56:38.923Z,100793.19
2022-10-14T18:59:09.171Z,100785.22
2022-10-14T19:01:38.141Z,100787.09
2022-10-14T19:04:06.755Z,100793.25
2022-10-14T19:06:34.716Z,100784.44
2022-10-14T19:09:02.067Z,100789.75
2022-10-14T19:11:31.822Z,100784.38
2022-10-14T19:14:00.536Z,100784.38
2022-10-14T19:16:30.773Z,100778.19
2022-10-14T19:18:59.769Z,100777.34
2022-10-14T19:21:37.413Z,100773.81
2022-10-14T19:24:04.669Z,100786.16
2022-10-14T19:26:35.265Z,100783.50
2022-10-14T19:29:06.359Z,100779.91
2022-10-14T19:31:36.163Z,100783.47
2022-10-14T19:34:06.803Z,100774.56
2022-10-14T19:36:40.499Z,100771.84
2022-10-14T19:39:10.039Z,100777.13
2022-10-14T19:41:43.919Z,100778.84
2022-10-14T19:44:12.022Z,100784.09
2022-10-14T19:46:41.860Z,100782.25
2022-10-14T19:49:14.256Z,100778.66
2022-10-14T19:51:41.334Z,100789.16
2022-10-14T19:54:11.238Z,100783.06
2022-10-14T19:56:37.963Z,100794.66
2022-10-14T19:59:04.607Z,100788.59
2022-10-14T20:01:34.394Z,100777.13
2022-10-14T20:04:02.822Z,100772.78
2022-10-14T20:06:32.807Z,100778.19
2022-10-14T20:09:02.663Z,100771.31
2022-10-14T20:11:29.545Z,100770.53
2022-10-14T20:13:56.297Z,100767.13
2022-10-14T20:16:23.307Z,100759.22
2022-10-14T20:18:51.057Z,100763.72
2022-10-14T20:21:18.945Z,100759.38
2022-10-14T20:23:45.541Z,100764.88
2022-10-14T20:26:22.767Z,100764.91
2022-10-14T20:28:50.281Z,100755.34
2022-10-14T20:31:19.792Z,100755.44
2022-10-14T20:33:46.658Z,100751.19
2022-10-14T20:36:16.084Z,100752.31
2022-10-14T20:38:43.615Z,100748.06
2022-10-14T20:41:17.859Z,100750.81
2022-10-14T20:43:46.235Z,100747.41
2022-10-14T20:46:13.002Z,100744.97
2022-10-14T20:48:40.072Z,100743.34
2022-10-14T20:51:07.939Z,100747.03
2022-10-14T20:53:34.745Z,100737.50
2022-10-14T20:56:06.964Z,100742.97
2022-10-14T20:58:34.029Z,100742.28
2022-10-14T21:01:17.567Z,100741.56
2022-10-14T21:03:48.424Z,100735.47
2022-10-14T21:06:23.600Z,100736.44
2022-10-14T21:08:51.870Z,100740.88
2022-10-14T21:11:21.446Z,100736.56
2022-10-14T21:13:51.048Z,100737.50
2022-10-14T21:16:25.101Z,100746.38
2022-10-14T21:18:58.071Z,100746.41
2022-10-14T21:21:27.322Z,100734.16
2022-10-14T21:23:54.740Z,100735.16
2022-10-14T21:26:21.519Z,100736.94
2022-10-14T21:28:53.991Z,100734.28
2022-10-14T21:31:21.758Z,100720.28
2022-10-14T21:33:53.751Z,100718.63
2022-10-14T21:36:20.376Z,100729.25
2022-10-14T21:38:47.089Z,100723.19
2022-10-14T21:41:13.749Z,100725.84
2022-10-14T21:43:41.200Z,100726.00
2022-10-14T21:46:13.654Z,100718.16
2022-10-14T21:48:44.003Z,100719.94
2022-10-14T21:51:18.279Z,100716.53
2022-10-14T21:53:48.335Z,100715.75
2022-10-14T21:56:15.888Z,100717.56
2022-10-14T21:58:44.822Z,100714.09
2022-10-14T22:01:25.728Z,100717.84
2022-10-14T22:03:57.939Z,100704.69
2022-10-14T22:06:26.812Z,100702.94
2022-10-14T22:08:56.588Z,100704.78
2022-10-14T22:11:26.569Z,100698.66
2022-10-14T22:13:54.534Z,100694.28
2022-10-14T22:16:21.419Z,100698.66
2022-10-14T22:18:50.627Z,100697.72
2022-10-14T22:21:20.006Z,100699.41
2022-10-14T22:23:50.274Z,100693.16
2022-10-14T22:26:20.261Z,100691.38
2022-10-14T22:28:47.817Z,100700.00
2022-10-14T22:31:21.885Z,100697.25
2022-10-14T22:33:50.866Z,100694.50
2022-10-14T22:36:28.396Z,100690.03
2022-10-14T22:38:57.355Z,100689.97
2022-10-14T22:41:25.467Z,100689.03
2022-10-14T22:43:54.792Z,100689.03
2022-10-14T22:46:24.529Z,100694.22
2022-10-14T22:48:58.824Z,100696.81
2022-10-14T22:54:00.166Z,100690.44
2022-10-14T22:56:28.746Z,100684.19
2022-10-14T22:58:56.839Z,100688.50
2022-10-14T23:01:28.019Z,100684.88
2022-10-14T23:03:56.465Z,100683.91
2022-10-14T23:06:23.228Z,100686.59
2022-10-14T23:08:49.930Z,100682.16
2022-10-14T23:11:20.933Z,100678.56
2022-10-14T23:13:48.917Z,100687.31
2022-10-14T23:16:27.572Z,100683.72
2022-10-14T23:18:54.703Z,100682.72
2022-10-14T23:21:25.659Z,100673.69
2022-10-14T23:23:57.071Z,100670.13
2022-10-14T23:26:26.413Z,100670.03
2022-10-14T23:29:00.244Z,100669.91
2022-10-14T23:31:32.845Z,100673.41
2022-10-14T23:34:06.695Z,100674.19
2022-10-14T23:36:34.026Z,100677.66
2022-10-14T23:39:00.678Z,100671.44
2022-10-14T23:41:27.371Z,100666.03
2022-10-14T23:43:55.567Z,100665.91
2022-10-14T23:46:23.031Z,100664.09
2022-10-14T23:49:06.871Z,100659.56
2022-10-14T23:51:42.475Z,100656.81
2022-10-14T23:54:09.217Z,100647.94
2022-10-14T23:56:38.723Z,100647.81
2022-10-14T23:59:05.367Z,100649.53
